Time;durP1;ratioP1;P1;durP2;ratioP2;P2;SDS_P1;SDS_P2;PMS_P1;PMS_P2;Temp;Humidity;BMP_temperature;BMP_pressure;BME280_temperature;BME280_humidity;BME280_pressure;Samples;Min_cycle;Max_cycle;Signal;HPM_P1;HPM_P2
2022/03/04 00:01:46;;;;;;;18.57;12.23;;;2.20;83.90;;;;;;5031531;28;20197;-67
2022/03/04 00:04:13;;;;;;;14.97;12.10;;;2.10;84.70;;;;;;5031813;28;20198;-68
2022/03/04 00:06:38;;;;;;;13.80;11.67;;;2.10;85.30;;;;;;5031600;28;20448;-67
2022/03/04 00:09:04;;;;;;;15.77;12.00;;;2.10;86.00;;;;;;5031731;28;20978;-68
2022/03/04 00:11:30;;;;;;;18.50;13.27;;;2.10;87.10;;;;;;5031261;28;20184;-68
2022/03/04 00:13:55;;;;;;;16.73;12.00;;;2.10;87.60;;;;;;5031398;28;20272;-67
2022/03/04 00:16:21;;;;;;;17.43;11.67;;;2.00;87.70;;;;;;5031502;28;20182;-67
2022/03/04 00:19:06;;;;;;;15.03;11.80;;;2.00;88.90;;;;;;5031603;28;20189;-68
2022/03/04 00:21:41;;;;;;;15.43;11.83;;;2.00;88.90;;;;;;5031542;28;20308;-67
2022/03/04 00:24:09;;;;;;;18.27;13.40;;;2.00;89.20;;;;;;5031413;28;20551;-67
2022/03/04 00:26:34;;;;;;;13.37;11.17;;;2.00;89.30;;;;;;5031316;28;20441;-68
2022/03/04 00:29:00;;;;;;;15.43;12.27;;;2.00;90.20;;;;;;5031750;28;21073;-68
2022/03/04 00:31:26;;;;;;;14.27;11.83;;;1.90;90.30;;;;;;5032514;28;20435;-68
2022/03/04 00:33:52;;;;;;;17.90;12.77;;;1.90;90.10;;;;;;5031057;28;20293;-67
2022/03/04 00:36:22;;;;;;;15.83;13.27;;;1.90;90.30;;;;;;5035060;28;20446;-67
2022/03/04 00:38:49;;;;;;;19.67;12.87;;;1.80;90.20;;;;;;5033018;28;20445;-67
2022/03/04 00:41:19;;;;;;;16.90;13.33;;;1.90;90.80;;;;;;5043561;28;20439;-67
2022/03/04 00:43:45;;;;;;;15.30;12.53;;;1.70;92.50;;;;;;5032403;28;20440;-67
2022/03/04 00:46:11;;;;;;;19.73;11.83;;;1.60;93.10;;;;;;5031240;28;20441;-67
2022/03/04 00:48:37;;;;;;;15.07;12.97;;;1.50;93.00;;;;;;5032889;28;20502;-68
2022/03/04 00:51:03;;;;;;;15.70;12.17;;;1.50;92.30;;;;;;5036970;28;20876;-67
2022/03/04 00:53:30;;;;;;;17.80;12.00;;;1.50;93.90;;;;;;5032070;28;20571;-67
2022/03/04 00:55:56;;;;;;;15.60;12.37;;;1.40;94.10;;;;;;5031436;28;20205;-67
2022/03/04 00:58:21;;;;;;;17.60;13.13;;;1.30;94.40;;;;;;5031607;28;20439;-67
2022/03/04 01:00:47;;;;;;;17.23;12.80;;;1.30;94.20;;;;;;5031099;28;20524;-68
2022/03/04 01:03:12;;;;;;;19.40;12.77;;;1.40;93.90;;;;;;5031166;28;20179;-67
2022/03/04 01:05:38;;;;;;;15.80;13.63;;;1.40;93.90;;;;;;5032361;28;20206;-68
2022/03/04 01:08:04;;;;;;;24.20;12.53;;;1.30;95.10;;;;;;5031333;28;20178;-67
2022/03/04 01:10:30;;;;;;;14.40;11.33;;;1.30;95.00;;;;;;5031218;28;20603;-67
2022/03/04 01:12:55;;;;;;;15.03;12.60;;;1.30;94.80;;;;;;5032549;28;20557;-67
2022/03/04 01:15:21;;;;;;;16.30;12.87;;;1.20;95.90;;;;;;5034630;28;20440;-67
2022/03/04 01:17:47;;;;;;;18.23;13.40;;;1.10;96.50;;;;;;5026587;28;20644;-68
2022/03/04 01:20:13;;;;;;;21.93;14.07;;;1.00;97.40;;;;;;5034920;28;20436;-67
2022/03/04 01:22:38;;;;;;;14.93;12.50;;;0.90;98.20;;;;;;5034840;28;20189;-67
2022/03/04 01:25:04;;;;;;;16.70;11.90;;;0.90;98.30;;;;;;5034696;28;20293;-67
2022/03/04 01:27:30;;;;;;;15.80;12.43;;;0.90;99.00;;;;;;5034268;28;20541;-67
2022/03/04 01:29:56;;;;;;;20.90;13.80;;;0.90;99.20;;;;;;5042201;28;20461;-68
2022/03/04 01:32:21;;;;;;;16.80;12.37;;;0.90;99.90;;;;;;5043364;28;20190;-67
2022/03/04 01:34:47;;;;;;;18.73;14.07;;;1.00;99.90;;;;;;5034319;28;20213;-68
2022/03/04 01:37:12;;;;;;;22.87;14.57;;;0.90;99.90;;;;;;5034579;28;20198;-68
2022/03/04 01:39:38;;;;;;;15.47;12.40;;;0.90;99.90;;;;;;5042331;28;20259;-68
2022/03/04 01:42:04;;;;;;;17.17;12.90;;;1.00;99.90;;;;;;5035986;28;20174;-68
2022/03/04 01:44:30;;;;;;;17.00;13.33;;;0.90;99.90;;;;;;5045134;28;20460;-68
2022/03/04 01:46:55;;;;;;;19.00;12.40;;;0.90;99.90;;;;;;5036071;28;20862;-68
2022/03/04 01:49:21;;;;;;;21.20;13.43;;;0.80;99.90;;;;;;5037537;28;20252;-68
2022/03/04 01:51:47;;;;;;;19.60;13.30;;;0.80;99.90;;;;;;5033947;28;20186;-68
2022/03/04 01:54:12;;;;;;;15.33;12.40;;;0.70;99.90;;;;;;5033757;28;20570;-68
2022/03/04 01:56:38;;;;;;;18.40;12.87;;;0.70;99.90;;;;;;5041408;28;20239;-67
2022/03/04 01:59:04;;;;;;;18.83;13.07;;;0.70;99.90;;;;;;5034013;28;20205;-68
2022/03/04 02:01:30;;;;;;;22.10;13.30;;;0.70;99.90;;;;;;5033823;28;20436;-67
2022/03/04 02:03:56;;;;;;;19.87;15.90;;;0.70;99.90;;;;;;5037927;28;20198;-67
2022/03/04 02:06:21;;;;;;;14.80;12.03;;;0.70;99.90;;;;;;5033598;28;20648;-66
2022/03/04 02:08:47;;;;;;;21.17;13.30;;;0.60;99.90;;;;;;5042146;28;20209;-66
2022/03/04 02:11:13;;;;;;;17.90;13.03;;;0.60;99.90;;;;;;5038537;28;20178;-66
2022/03/04 02:13:39;;;;;;;23.80;14.13;;;0.50;99.90;;;;;;5035190;28;20660;-66
2022/03/04 02:16:12;;;;;;;18.83;12.80;;;0.50;99.90;;;;;;5046909;28;20527;-66
2022/03/04 02:18:38;;;;;;;18.30;12.80;;;0.40;99.90;;;;;;5038152;28;20173;-66
2022/03/04 02:21:07;;;;;;;20.83;15.20;;;0.40;99.90;;;;;;5038744;28;20439;-66
2022/03/04 02:23:33;;;;;;;19.90;13.90;;;0.40;99.90;;;;;;5045137;28;20261;-66
2022/03/04 02:25:59;;;;;;;21.30;13.37;;;0.40;99.90;;;;;;5035805;28;20532;-66
2022/03/04 02:28:25;;;;;;;19.73;13.70;;;0.50;99.90;;;;;;5037030;28;20268;-66
2022/03/04 02:30:50;;;;;;;17.37;12.87;;;0.50;99.90;;;;;;5045822;28;20969;-66
2022/03/04 02:33:16;;;;;;;21.03;12.70;;;0.50;99.90;;;;;;5039349;28;20178;-66
2022/03/04 02:35:42;;;;;;;17.13;14.00;;;0.50;99.90;;;;;;5032673;28;20562;-66
2022/03/04 02:38:09;;;;;;;18.50;13.73;;;0.40;99.90;;;;;;5032867;28;20436;-66
2022/03/04 02:40:34;;;;;;;18.20;13.03;;;0.40;99.90;;;;;;5032812;28;20498;-66
2022/03/04 02:43:00;;;;;;;23.97;15.30;;;0.40;99.90;;;;;;5032767;28;20815;-66
2022/03/04 02:45:25;;;;;;;17.83;12.93;;;0.40;99.90;;;;;;5041981;28;20223;-67
2022/03/04 02:47:51;;;;;;;15.33;12.90;;;0.40;99.90;;;;;;5032954;28;20216;-66
2022/03/04 02:50:17;;;;;;;16.17;12.77;;;0.50;99.90;;;;;;5032750;28;20201;-66
2022/03/04 02:52:42;;;;;;;19.07;12.07;;;0.40;99.90;;;;;;5032764;28;20178;-68
2022/03/04 02:55:11;;;;;;;21.17;15.73;;;0.40;99.90;;;;;;5035791;28;20189;-67
2022/03/04 02:57:47;;;;;;;15.73;12.23;;;0.40;99.90;;;;;;5051168;28;20169;-66
2022/03/04 03:00:15;;;;;;;19.03;13.40;;;0.30;99.90;;;;;;5032789;28;20486;-67
2022/03/04 03:02:41;;;;;;;18.77;13.47;;;0.30;99.90;;;;;;5032599;28;20475;-66
2022/03/04 03:05:07;;;;;;;21.70;14.07;;;0.30;99.90;;;;;;5032391;28;20452;-67
2022/03/04 03:07:32;;;;;;;22.57;15.57;;;0.30;99.90;;;;;;5032721;28;20494;-66
2022/03/04 03:09:58;;;;;;;18.07;13.40;;;0.20;99.90;;;;;;5036432;28;20966;-68
2022/03/04 03:12:23;;;;;;;16.50;13.27;;;0.20;99.90;;;;;;5038794;28;20240;-66
2022/03/04 03:14:49;;;;;;;19.93;14.50;;;0.20;99.90;;;;;;5032216;28;20292;-66
2022/03/04 03:17:15;;;;;;;21.10;13.63;;;0.20;99.90;;;;;;5030025;28;20166;-66
2022/03/04 03:19:41;;;;;;;18.90;14.30;;;0.20;99.90;;;;;;5036788;28;20178;-67
2022/03/04 03:22:06;;;;;;;18.90;13.77;;;0.10;99.90;;;;;;5037234;28;21011;-67
2022/03/04 03:24:32;;;;;;;20.77;15.10;;;0.10;99.90;;;;;;5042879;28;20202;-66
2022/03/04 03:26:57;;;;;;;17.67;13.37;;;0.10;99.90;;;;;;5033769;28;20529;-68
2022/03/04 03:29:23;;;;;;;18.00;13.77;;;0.10;99.90;;;;;;5036138;28;20402;-68
2022/03/04 03:31:49;;;;;;;18.97;13.57;;;0.00;99.90;;;;;;5033151;28;20663;-67
2022/03/04 03:34:14;;;;;;;21.00;15.03;;;-0.10;99.90;;;;;;5041567;28;20248;-68
2022/03/04 03:36:40;;;;;;;18.63;13.60;;;-0.10;99.90;;;;;;5041184;28;20620;-67
2022/03/04 03:39:08;;;;;;;18.30;13.43;;;-0.10;99.90;;;;;;5042777;28;20261;-67
2022/03/04 03:41:34;;;;;;;25.87;15.90;;;0.00;99.90;;;;;;5034351;28;20206;-68
2022/03/04 03:43:59;;;;;;;20.43;14.27;;;-0.10;99.90;;;;;;5032048;28;20492;-68
2022/03/04 03:46:25;;;;;;;17.47;13.70;;;-0.10;99.90;;;;;;5031866;28;20178;-68
2022/03/04 03:48:51;;;;;;;17.50;12.43;;;-0.10;99.90;;;;;;5031670;28;20201;-68
2022/03/04 03:51:16;;;;;;;17.90;13.80;;;-0.10;99.90;;;;;;5032139;28;20184;-68
2022/03/04 03:53:42;;;;;;;15.63;13.33;;;-0.10;99.90;;;;;;5047536;28;20620;-68
2022/03/04 03:56:07;;;;;;;19.23;15.10;;;-0.20;99.90;;;;;;5042464;28;20197;-68
2022/03/04 03:58:33;;;;;;;19.70;13.50;;;-0.20;99.90;;;;;;5037818;28;20202;-68
2022/03/04 04:00:59;;;;;;;22.13;13.80;;;-0.30;99.90;;;;;;5031909;28;20956;-68
2022/03/04 04:03:25;;;;;;;19.93;14.73;;;-0.20;99.90;;;;;;5033791;28;20178;-68
2022/03/04 04:05:50;;;;;;;22.30;14.03;;;-0.30;99.90;;;;;;5031199;28;20564;-68
2022/03/04 04:08:16;;;;;;;19.50;14.20;;;-0.30;99.90;;;;;;5036404;28;20216;-68
2022/03/04 04:10:41;;;;;;;20.57;14.00;;;-0.30;99.90;;;;;;5030462;28;20201;-68
2022/03/04 04:13:07;;;;;;;19.40;14.47;;;-0.40;99.90;;;;;;5031614;28;20174;-68
2022/03/04 04:15:32;;;;;;;20.73;13.70;;;-0.40;99.90;;;;;;5031660;28;20243;-68
2022/03/04 04:17:58;;;;;;;18.53;14.27;;;-0.40;99.90;;;;;;5031791;28;20644;-68
2022/03/04 04:20:23;;;;;;;20.03;13.43;;;-0.50;99.90;;;;;;5031735;28;20193;-68
2022/03/04 04:22:49;;;;;;;18.70;13.57;;;-0.50;99.90;;;;;;5031833;28;20193;-68
2022/03/04 04:25:14;;;;;;;18.53;13.37;;;-0.60;99.90;;;;;;5031641;28;20213;-68
2022/03/04 04:27:40;;;;;;;17.27;13.17;;;-0.50;99.90;;;;;;5031581;28;20193;-68
2022/03/04 04:30:06;;;;;;;19.37;12.87;;;-0.50;99.90;;;;;;5031456;28;20275;-68
2022/03/04 04:32:32;;;;;;;17.40;12.63;;;-0.50;99.90;;;;;;5031288;28;20186;-68
2022/03/04 04:34:57;;;;;;;17.37;13.40;;;-0.50;99.90;;;;;;5031866;28;20463;-68
2022/03/04 04:37:23;;;;;;;18.90;14.00;;;-0.50;99.90;;;;;;5041595;28;20698;-69
2022/03/04 04:39:48;;;;;;;14.80;12.23;;;-0.50;99.90;;;;;;5031864;28;20186;-69
2022/03/04 04:42:14;;;;;;;17.97;13.93;;;-0.50;99.90;;;;;;5031677;28;20234;-69
2022/03/04 04:44:39;;;;;;;20.67;14.77;;;-0.60;99.90;;;;;;5030299;28;20225;-69
2022/03/04 04:47:06;;;;;;;24.10;14.00;;;-0.60;99.90;;;;;;5032932;28;20182;-69
2022/03/04 04:49:35;;;;;;;19.77;12.87;;;-0.60;99.90;;;;;;5037575;28;20205;-69
2022/03/04 04:52:01;;;;;;;19.60;13.90;;;-0.60;99.90;;;;;;5040239;28;20428;-69
2022/03/04 04:54:26;;;;;;;19.90;14.10;;;-0.60;99.90;;;;;;5040189;28;21005;-69
2022/03/04 04:56:52;;;;;;;22.60;14.53;;;-0.70;99.90;;;;;;5035502;28;20182;-69
2022/03/04 04:59:17;;;;;;;18.87;13.20;;;-0.70;99.90;;;;;;5039341;28;20278;-69
2022/03/04 05:01:43;;;;;;;22.70;14.27;;;-0.70;99.90;;;;;;5034855;28;20191;-69
2022/03/04 05:04:09;;;;;;;18.83;12.63;;;-0.70;99.90;;;;;;5046723;28;20636;-69
2022/03/04 05:06:34;;;;;;;18.07;14.37;;;-0.70;99.90;;;;;;5045214;28;20213;-69
2022/03/04 05:09:00;;;;;;;17.80;12.87;;;-0.70;99.90;;;;;;5035040;28;20205;-69
2022/03/04 05:11:26;;;;;;;24.60;15.37;;;-0.70;99.90;;;;;;5046042;28;20182;-69
2022/03/04 05:13:51;;;;;;;20.27;14.30;;;-0.80;99.90;;;;;;5039723;28;20273;-69
2022/03/04 05:16:17;;;;;;;18.93;12.93;;;-0.70;99.90;;;;;;5033084;28;20221;-69
2022/03/04 05:18:42;;;;;;;18.63;13.80;;;-0.70;99.90;;;;;;5041743;28;20178;-69
2022/03/04 05:21:08;;;;;;;18.90;14.17;;;-0.70;99.90;;;;;;5040462;28;20189;-68
2022/03/04 05:26:18;;;;;;;21.30;14.27;;;-0.80;99.90;;;;;;5037967;28;20189;-68
2022/03/04 05:28:43;;;;;;;19.47;13.17;;;-0.90;99.90;;;;;;5034520;28;20437;-67
2022/03/04 05:31:09;;;;;;;16.80;12.40;;;-0.90;99.90;;;;;;5034045;28;20170;-68
2022/03/04 05:33:34;;;;;;;17.23;13.90;;;-0.90;99.90;;;;;;5035163;28;20196;-68
2022/03/04 05:36:00;;;;;;;17.27;13.43;;;-0.90;99.90;;;;;;5043751;28;20178;-68
2022/03/04 05:38:25;;;;;;;20.63;14.67;;;-0.90;99.90;;;;;;5045969;28;20635;-67
2022/03/04 05:40:51;;;;;;;22.30;15.10;;;-0.90;99.90;;;;;;5039414;28;20655;-68
2022/03/04 05:43:16;;;;;;;21.80;14.53;;;-0.90;99.90;;;;;;5046643;28;20606;-67
2022/03/04 05:45:42;;;;;;;19.73;15.40;;;-1.00;99.90;;;;;;5036114;28;20206;-68
2022/03/04 05:48:08;;;;;;;22.93;14.70;;;-1.00;99.90;;;;;;5038847;28;20195;-68
2022/03/04 05:50:33;;;;;;;19.47;14.17;;;-1.00;99.90;;;;;;5034898;28;20209;-68
2022/03/04 05:52:58;;;;;;;17.83;13.40;;;-1.00;99.90;;;;;;5037787;28;20543;-67
2022/03/04 05:55:24;;;;;;;22.23;14.77;;;-0.90;99.90;;;;;;5033643;28;20198;-68
2022/03/04 05:57:49;;;;;;;27.57;15.43;;;-1.00;99.90;;;;;;5033190;28;20221;-68
2022/03/04 06:00:15;;;;;;;21.40;14.03;;;-1.00;99.90;;;;;;5034351;28;20580;-68
2022/03/04 06:02:41;;;;;;;19.80;14.03;;;-0.90;99.90;;;;;;5034713;28;20194;-68
2022/03/04 06:05:07;;;;;;;26.00;15.93;;;-0.90;99.90;;;;;;5043300;28;20196;-68
2022/03/04 06:07:35;;;;;;;22.40;14.57;;;-0.90;99.90;;;;;;5033553;28;20565;-68
2022/03/04 06:10:01;;;;;;;20.43;14.27;;;-0.90;99.90;;;;;;5045228;28;20457;-68
2022/03/04 06:12:26;;;;;;;17.73;13.80;;;-0.90;99.90;;;;;;5033319;28;20435;-68
2022/03/04 06:14:52;;;;;;;19.30;14.27;;;-1.00;99.90;;;;;;5033414;28;20457;-67
2022/03/04 06:17:18;;;;;;;20.40;14.60;;;-1.00;99.90;;;;;;5032785;28;20182;-67
2022/03/04 06:19:44;;;;;;;24.10;15.77;;;-1.10;99.90;;;;;;5032955;28;20228;-67
2022/03/04 06:22:10;;;;;;;28.73;17.93;;;-1.10;99.90;;;;;;5031665;28;20441;-67
2022/03/04 06:24:36;;;;;;;21.00;15.30;;;-1.10;99.90;;;;;;5034515;28;20200;-67
2022/03/04 06:27:02;;;;;;;20.13;15.50;;;-1.10;99.90;;;;;;5032843;28;20429;-67
2022/03/04 06:29:28;;;;;;;25.80;14.57;;;-1.00;99.90;;;;;;5032489;28;20507;-67
2022/03/04 06:31:53;;;;;;;22.37;15.43;;;-0.90;99.90;;;;;;5032221;28;20208;-67
2022/03/04 06:34:19;;;;;;;24.87;15.90;;;-0.70;99.90;;;;;;5033044;28;20203;-67
2022/03/04 06:36:44;;;;;;;24.73;15.00;;;-0.60;99.90;;;;;;5032425;28;20202;-67
2022/03/04 06:39:10;;;;;;;19.90;14.63;;;-0.30;99.90;;;;;;5032793;28;20174;-67
2022/03/04 06:41:37;;;;;;;22.20;13.87;;;-0.10;99.90;;;;;;5032372;28;20228;-67
2022/03/04 06:44:03;;;;;;;22.30;15.40;;;0.00;99.90;;;;;;5029943;28;20267;-67
2022/03/04 06:46:29;;;;;;;21.83;15.13;;;0.30;99.90;;;;;;5032321;28;20436;-67
2022/03/04 06:48:55;;;;;;;18.73;13.80;;;0.50;99.90;;;;;;5034277;28;20465;-67
2022/03/04 06:51:20;;;;;;;23.40;16.40;;;0.70;99.90;;;;;;5033900;28;20699;-67
2022/03/04 06:53:46;;;;;;;22.67;14.87;;;0.80;99.90;;;;;;5039704;28;20648;-67
2022/03/04 06:56:12;;;;;;;19.23;14.77;;;1.00;99.90;;;;;;5031499;28;20178;-67
2022/03/04 06:58:37;;;;;;;20.73;13.90;;;1.20;99.90;;;;;;5036120;28;20261;-67
2022/03/04 07:01:04;;;;;;;21.73;16.90;;;1.40;99.90;;;;;;5037383;28;20178;-67
2022/03/04 07:03:29;;;;;;;24.23;16.20;;;1.70;99.90;;;;;;5032969;28;20174;-67
2022/03/04 07:05:55;;;;;;;24.80;16.10;;;1.80;99.90;;;;;;5033799;28;20439;-67
2022/03/04 07:08:21;;;;;;;20.43;15.20;;;2.00;99.90;;;;;;5032249;28;20175;-67
2022/03/04 07:10:48;;;;;;;23.90;16.10;;;2.20;99.90;;;;;;5031597;28;20209;-67
2022/03/04 07:13:14;;;;;;;23.17;16.17;;;2.30;99.90;;;;;;5032187;28;20553;-67
2022/03/04 07:15:40;;;;;;;23.60;16.27;;;2.50;99.90;;;;;;5031082;28;20449;-67
2022/03/04 07:18:05;;;;;;;23.80;15.77;;;2.60;99.90;;;;;;5035111;28;20450;-67
2022/03/04 07:20:31;;;;;;;22.13;17.73;;;2.80;99.90;;;;;;5040587;28;20192;-67
2022/03/04 07:22:57;;;;;;;24.53;16.43;;;2.90;99.90;;;;;;5039752;28;20206;-67
2022/03/04 07:25:23;;;;;;;19.80;15.97;;;3.00;99.90;;;;;;5034265;28;20475;-69
2022/03/04 07:27:48;;;;;;;26.43;17.70;;;3.00;99.90;;;;;;5016438;28;20186;-68
2022/03/04 07:30:16;;;;;;;23.30;17.67;;;3.10;99.90;;;;;;5000701;28;20247;-68
2022/03/04 07:32:43;;;;;;;31.53;18.57;;;3.20;99.90;;;;;;5027597;28;20175;-68
2022/03/04 07:35:10;;;;;;;24.90;18.60;;;3.40;99.90;;;;;;5021052;28;20454;-69
2022/03/04 07:37:39;;;;;;;25.40;19.57;;;3.60;99.90;;;;;;5024947;28;21442;-69
2022/03/04 07:40:07;;;;;;;22.87;17.70;;;3.70;99.90;;;;;;5032707;28;20463;-69
2022/03/04 07:42:33;;;;;;;24.00;18.07;;;3.90;99.90;;;;;;5030782;28;20463;-68
2022/03/04 07:44:59;;;;;;;21.93;17.70;;;4.00;99.90;;;;;;5027072;28;20457;-68
2022/03/04 07:47:25;;;;;;;25.80;19.20;;;4.20;99.90;;;;;;5024893;28;20201;-68
2022/03/04 07:49:50;;;;;;;23.90;17.60;;;4.40;99.90;;;;;;5033314;28;20206;-70
2022/03/04 07:52:17;;;;;;;24.70;18.50;;;4.50;99.90;;;;;;5035491;28;20219;-64
2022/03/04 07:54:43;;;;;;;33.57;23.60;;;4.60;99.90;;;;;;5032813;28;20239;-67
2022/03/04 07:57:09;;;;;;;27.13;18.50;;;4.70;99.60;;;;;;5028835;28;20417;-66
2022/03/04 07:59:34;;;;;;;24.27;15.77;;;4.90;98.50;;;;;;5030577;28;20440;-67
2022/03/04 08:02:00;;;;;;;18.97;15.87;;;5.00;97.60;;;;;;5030224;28;20170;-66
2022/03/04 08:04:26;;;;;;;25.37;17.23;;;5.30;96.70;;;;;;5031525;28;20297;-66
2022/03/04 08:06:51;;;;;;;21.20;16.17;;;5.50;96.10;;;;;;5031026;28;20786;-66
2022/03/04 08:09:17;;;;;;;21.73;15.63;;;5.60;95.10;;;;;;5029175;28;20713;-67
2022/03/04 08:11:44;;;;;;;20.77;17.80;;;5.90;94.50;;;;;;5035015;28;20525;-66
2022/03/04 08:14:10;;;;;;;22.80;18.67;;;6.20;94.30;;;;;;5032209;28;20276;-66
2022/03/04 08:16:35;;;;;;;20.97;17.40;;;6.40;93.40;;;;;;5030487;28;20841;-67
2022/03/04 08:19:03;;;;;;;27.10;17.33;;;6.60;92.40;;;;;;5026932;28;20698;-67
2022/03/04 08:21:29;;;;;;;24.10;18.33;;;6.80;91.10;;;;;;5036683;28;20197;-66
2022/03/04 08:23:54;;;;;;;24.37;20.10;;;6.80;90.80;;;;;;5048470;28;20457;-66
2022/03/04 08:26:20;;;;;;;26.13;18.80;;;7.00;90.30;;;;;;5041336;28;20182;-66
2022/03/04 08:28:46;;;;;;;23.83;18.53;;;7.30;89.20;;;;;;5031486;28;20181;-66
2022/03/04 08:31:11;;;;;;;20.57;16.93;;;7.50;86.30;;;;;;5037701;28;20644;-66
2022/03/04 08:33:38;;;;;;;22.87;18.70;;;7.70;85.50;;;;;;5039116;28;20246;-66
2022/03/04 08:36:05;;;;;;;23.90;18.17;;;8.20;83.90;;;;;;5035645;28;20710;-66
2022/03/04 08:38:31;;;;;;;28.60;19.47;;;8.60;80.60;;;;;;5033728;28;20551;-66
2022/03/04 08:40:56;;;;;;;26.50;20.90;;;9.20;79.30;;;;;;5041654;28;20429;-66
2022/03/04 08:43:22;;;;;;;24.20;19.93;;;9.70;76.00;;;;;;5042971;28;20437;-67
2022/03/04 08:45:48;;;;;;;22.07;18.90;;;10.30;72.70;;;;;;5039879;28;20216;-66
2022/03/04 08:48:13;;;;;;;26.37;22.00;;;10.60;70.50;;;;;;5033417;28;20550;-66
2022/03/04 08:50:39;;;;;;;21.77;19.43;;;11.10;68.10;;;;;;5040448;28;20210;-66
2022/03/04 08:53:04;;;;;;;26.60;21.03;;;11.50;64.90;;;;;;5034727;28;20634;-66
2022/03/04 08:55:30;;;;;;;23.10;19.70;;;11.50;63.50;;;;;;5034364;28;20277;-65
2022/03/04 08:57:57;;;;;;;28.43;21.83;;;11.70;62.20;;;;;;5032004;28;20179;-65
2022/03/04 09:00:24;;;;;;;27.27;20.90;;;11.90;60.70;;;;;;5035485;28;20209;-65
2022/03/04 09:02:49;;;;;;;29.87;22.50;;;12.60;58.60;;;;;;5037272;28;20941;-66
2022/03/04 09:05:15;;;;;;;25.33;21.30;;;12.70;57.60;;;;;;5036239;28;20510;-66
2022/03/04 09:07:41;;;;;;;25.73;21.87;;;13.40;56.70;;;;;;5031142;28;20178;-66
2022/03/04 09:10:08;;;;;;;23.70;20.67;;;13.70;55.40;;;;;;5037176;28;20198;-66
2022/03/04 09:12:33;;;;;;;22.87;20.53;;;14.00;53.50;;;;;;5039509;28;20436;-66
2022/03/04 09:14:59;;;;;;;23.53;20.97;;;14.60;52.30;;;;;;5034417;28;20456;-66
2022/03/04 09:17:25;;;;;;;24.80;22.30;;;14.50;51.50;;;;;;5032159;28;20297;-66
2022/03/04 09:19:50;;;;;;;24.77;21.93;;;14.90;50.60;;;;;;5037296;28;20185;-66
2022/03/04 09:22:16;;;;;;;25.10;22.47;;;14.50;49.50;;;;;;5031208;28;20206;-66
2022/03/04 09:24:41;;;;;;;27.50;24.07;;;15.80;48.40;;;;;;5031541;28;20205;-66
2022/03/04 09:27:07;;;;;;;30.10;23.80;;;15.90;48.20;;;;;;5038226;28;20186;-66
2022/03/04 09:29:33;;;;;;;27.83;22.63;;;15.60;46.60;;;;;;5038076;28;20295;-65
2022/03/04 09:31:59;;;;;;;28.00;22.90;;;15.50;47.10;;;;;;5033647;28;20260;-65
2022/03/04 09:34:25;;;;;;;28.80;25.80;;;16.10;46.80;;;;;;5039603;28;20463;-65
2022/03/04 09:36:50;;;;;;;28.87;25.90;;;16.70;45.30;;;;;;5034160;28;21081;-67
2022/03/04 09:39:16;;;;;;;28.13;24.43;;;17.40;43.70;;;;;;5031395;28;20232;-67
2022/03/04 09:41:44;;;;;;;25.20;22.60;;;18.20;42.90;;;;;;5033280;28;20176;-65
2022/03/04 09:44:11;;;;;;;27.60;24.77;;;19.30;41.90;;;;;;5035395;28;20339;-65
2022/03/04 09:46:39;;;;;;;26.73;24.23;;;20.10;38.80;;;;;;5034008;28;20440;-66
2022/03/04 09:49:05;;;;;;;29.80;23.67;;;18.80;39.30;;;;;;5030397;28;20996;-66
2022/03/04 09:51:30;;;;;;;27.20;24.40;;;18.70;38.80;;;;;;5023229;28;20433;-66
2022/03/04 09:53:56;;;;;;;27.87;24.97;;;18.00;38.60;;;;;;5029935;28;20205;-65
2022/03/04 09:56:21;;;;;;;28.80;26.10;;;17.30;39.40;;;;;;5038661;28;20640;-66
2022/03/04 09:58:48;;;;;;;29.30;26.50;;;17.80;39.00;;;;;;5027712;28;20297;-66
2022/03/04 10:01:15;;;;;;;27.47;24.70;;;18.50;38.60;;;;;;5029925;28;20205;-66
2022/03/04 10:03:43;;;;;;;27.77;23.67;;;18.70;37.70;;;;;;5032808;28;20433;-66
2022/03/04 10:06:08;;;;;;;24.47;22.10;;;19.30;36.20;;;;;;5033837;28;21144;-66
2022/03/04 10:08:53;;;;;;;23.27;20.97;;;19.90;33.30;;;;;;5026688;28;20468;-69
2022/03/04 10:11:37;;;;;;;24.63;22.00;;;20.00;35.80;;;;;;5030195;28;20276;-66
2022/03/04 10:14:07;;;;;;;26.47;23.60;;;21.30;32.10;;;;;;5030663;28;21290;-65
2022/03/04 10:16:36;;;;;;;26.20;23.67;;;21.40;30.50;;;;;;5032167;28;20425;-65
2022/03/04 10:19:18;;;;;;;24.63;22.10;;;20.30;31.10;;;;;;5027891;28;20443;-65
2022/03/04 10:21:47;;;;;;;24.50;22.13;;;19.70;31.00;;;;;;5034999;28;20448;-65
2022/03/04 10:24:13;;;;;;;25.67;23.07;;;19.50;30.80;;;;;;5030311;28;20448;-66
2022/03/04 10:26:38;;;;;;;27.80;23.37;;;18.40;31.90;;;;;;5032313;28;20582;-65
2022/03/04 10:29:21;;;;;;;26.73;21.67;;;17.50;33.00;;;;;;5027557;28;20208;-66
2022/03/04 10:32:05;;;;;;;22.77;20.47;;;18.80;32.50;;;;;;5032444;28;20177;-65
2022/03/04 10:34:42;;;;;;;23.97;21.30;;;20.00;30.60;;;;;;5032816;28;20806;-66
2022/03/04 10:37:07;;;;;;;23.50;21.00;;;20.30;29.50;;;;;;5030118;28;20424;-66
2022/03/04 10:39:33;;;;;;;23.97;21.17;;;20.10;29.30;;;;;;5034539;28;20435;-65
2022/03/04 10:41:59;;;;;;;23.00;20.73;;;19.50;29.50;;;;;;5036973;28;20183;-65
2022/03/04 10:44:27;;;;;;;28.83;22.37;;;18.50;30.30;;;;;;5035283;28;20300;-65
2022/03/04 10:46:54;;;;;;;24.17;21.80;;;18.80;30.70;;;;;;5031479;28;20257;-65
2022/03/04 10:49:25;;;;;;;23.43;21.00;;;19.30;30.30;;;;;;5030483;28;20471;-65
2022/03/04 10:51:51;;;;;;;24.00;21.60;;;19.50;30.20;;;;;;5037873;28;20498;-65
2022/03/04 10:54:18;;;;;;;23.20;20.17;;;20.10;30.10;;;;;;5029371;28;20453;-66
2022/03/04 10:56:51;;;;;;;26.50;23.70;;;20.40;29.60;;;;;;5037898;28;20572;-66
2022/03/04 10:59:18;;;;;;;24.20;22.00;;;21.30;29.10;;;;;;5025277;28;20811;-65
2022/03/04 11:01:48;;;;;;;24.03;21.73;;;22.10;28.30;;;;;;5034728;28;20485;-65
2022/03/04 11:04:16;;;;;;;23.23;20.97;;;21.90;28.60;;;;;;5029465;28;20456;-65
2022/03/04 11:06:45;;;;;;;24.87;22.30;;;21.80;28.10;;;;;;5027165;28;20602;-65
2022/03/04 11:09:27;;;;;;;25.53;22.90;;;21.40;28.50;;;;;;5027247;28;20457;-66
2022/03/04 11:11:53;;;;;;;25.13;22.70;;;22.40;27.90;;;;;;5031417;28;20421;-65
2022/03/04 11:14:22;;;;;;;23.10;20.97;;;23.30;27.60;;;;;;5031912;28;20551;-65
2022/03/04 11:16:49;;;;;;;25.10;21.83;;;23.90;26.90;;;;;;5031911;28;20504;-65
2022/03/04 11:19:15;;;;;;;22.97;20.60;;;24.30;26.60;;;;;;5032319;28;20971;-65
2022/03/04 11:21:41;;;;;;;26.07;23.37;;;21.50;27.40;;;;;;5029470;28;20946;-62
2022/03/04 11:24:07;;;;;;;24.63;22.23;;;21.60;28.00;;;;;;5026970;28;20456;-64
2022/03/04 11:26:38;;;;;;;25.10;22.43;;;22.90;27.70;;;;;;5019788;28;20194;-64
2022/03/04 11:29:05;;;;;;;22.47;20.37;;;22.00;27.00;;;;;;5030353;28;20205;-63
2022/03/04 11:31:32;;;;;;;23.90;21.67;;;22.70;27.00;;;;;;5036843;28;20924;-63
2022/03/04 11:34:00;;;;;;;24.63;22.20;;;23.50;26.80;;;;;;5035828;28;20458;-63
2022/03/04 11:36:27;;;;;;;25.97;23.37;;;23.10;27.40;;;;;;5038109;28;20429;-64
2022/03/04 11:38:55;;;;;;;27.17;24.57;;;22.40;27.70;;;;;;5032214;28;20494;-63
2022/03/04 11:41:30;;;;;;;29.57;26.83;;;24.10;27.30;;;;;;5040736;28;20507;-64
2022/03/04 11:44:15;;;;;;;28.80;26.03;;;24.80;26.60;;;;;;5033761;28;20456;-65
2022/03/04 11:46:50;;;;;;;27.67;24.93;;;25.80;26.30;;;;;;5031332;28;20443;-65
2022/03/04 11:49:46;;;;;;;26.33;23.83;;;25.80;25.80;;;;;;5029331;28;20459;-65
2022/03/04 11:52:12;;;;;;;28.50;25.83;;;25.20;25.80;;;;;;5028871;28;20466;-66
2022/03/04 11:54:45;;;;;;;24.93;22.63;;;25.60;25.90;;;;;;5031314;28;20459;-68
2022/03/04 11:57:27;;;;;;;27.30;24.60;;;26.40;25.60;;;;;;5015231;28;20428;-67
2022/03/04 11:59:59;;;;;;;25.30;23.00;;;27.30;25.00;;;;;;5033430;28;20486;-66
2022/03/04 12:02:35;;;;;;;26.17;23.60;;;27.30;24.60;;;;;;5050331;28;21016;-66
2022/03/04 12:05:22;;;;;;;26.90;24.50;;;28.50;24.50;;;;;;5031498;28;20466;-66
2022/03/04 12:07:53;;;;;;;27.47;24.87;;;28.70;24.00;;;;;;5041121;28;20436;-66
2022/03/04 12:10:29;;;;;;;25.93;23.60;;;27.80;24.00;;;;;;5025348;28;20460;-65
2022/03/04 12:13:11;;;;;;;25.90;23.50;;;26.50;24.50;;;;;;5033210;28;20451;-67
2022/03/04 12:15:58;;;;;;;25.93;23.60;;;26.90;24.50;;;;;;5033581;28;20441;-66
2022/03/04 12:18:28;;;;;;;27.10;24.50;;;26.80;24.40;;;;;;5029440;28;22041;-66
2022/03/04 12:21:06;;;;;;;26.33;23.80;;;27.10;23.90;;;;;;5032391;28;20821;-66
2022/03/04 12:23:46;;;;;;;25.07;22.70;;;28.10;23.70;;;;;;5031272;28;20436;-66
2022/03/04 12:26:20;;;;;;;25.33;23.13;;;28.20;23.60;;;;;;5030756;28;20437;-66
2022/03/04 12:28:49;;;;;;;25.43;23.30;;;28.30;23.40;;;;;;5025694;28;20437;-66
2022/03/04 12:31:23;;;;;;;25.70;23.23;;;29.10;23.10;;;;;;5030846;28;21222;-66
2022/03/04 12:33:54;;;;;;;27.10;24.73;;;28.90;22.70;;;;;;5031582;28;20440;-66